Time;durP1;ratioP1;P1;durP2;ratioP2;P2;SDS_P1;SDS_P2;PMS_P1;PMS_P2;Temp;Humidity;BMP_temperature;BMP_pressure;BME280_temperature;BME280_humidity;BME280_pressure;Samples;Min_cycle;Max_cycle;Signal;HPM_P1;HPM_P2
2021/08/07 00:02:09;;;;;;;8.30;3.10;;;;;;;14.58;71.01;96712.97;126965;1092;62617;-73
2021/08/07 00:04:36;;;;;;;3.93;2.77;;;;;;;14.58;71.14;96722.09;126946;1092;62636;-78
2021/08/07 00:07:03;;;;;;;3.33;2.60;;;;;;;14.52;71.21;96718.44;127003;1092;62588;-79
2021/08/07 00:09:31;;;;;;;4.80;2.47;;;;;;;14.48;71.16;96721.43;126967;1092;62799;-77
2021/08/07 00:11:57;;;;;;;4.20;2.90;;;;;;;14.45;71.16;96729.99;126953;1092;62596;-73
2021/08/07 00:14:25;;;;;;;3.57;2.80;;;;;;;14.44;71.39;96725.67;127097;1092;62620;-80
2021/08/07 00:16:51;;;;;;;4.20;3.00;;;;;;;14.42;71.44;96730.94;127051;1092;62636;-79
2021/08/07 00:19:18;;;;;;;4.70;2.80;;;;;;;14.40;71.59;96730.65;126943;1092;62706;-78
2021/08/07 00:21:45;;;;;;;8.93;3.10;;;;;;;14.35;71.84;96728.52;126945;1092;62605;-74
2021/08/07 00:24:32;;;;;;;4.40;3.00;;;;;;;14.29;71.84;96734.02;126916;1092;62614;-77
2021/08/07 00:26:59;;;;;;;6.03;3.07;;;;;;;14.29;71.74;96738.81;126968;1092;62690;-78
2021/08/07 00:29:26;;;;;;;4.07;3.00;;;;;;;14.27;71.87;96741.31;127096;1092;62854;-79
2021/08/07 00:31:53;;;;;;;4.70;2.60;;;;;;;14.21;72.04;96733.65;127047;1092;62698;-77
2021/08/07 00:34:20;;;;;;;4.93;2.90;;;;;;;14.19;72.06;96746.52;126995;1092;62769;-76
2021/08/07 00:36:47;;;;;;;5.30;3.10;;;;;;;14.14;71.98;96745.16;127088;1092;62652;-76
2021/08/07 00:39:14;;;;;;;5.20;2.90;;;;;;;14.11;72.13;96746.13;127014;1092;62623;-79
2021/08/07 00:41:41;;;;;;;3.13;2.50;;;;;;;14.15;72.43;96751.49;127012;1092;62571;-77
2021/08/07 00:44:08;;;;;;;4.43;2.50;;;;;;;14.07;72.47;96745.55;127059;1092;62773;-74
2021/08/07 00:46:35;;;;;;;4.07;3.00;;;;;;;14.05;72.34;96752.86;127120;1092;62575;-79
2021/08/07 00:49:03;;;;;;;5.83;2.87;;;;;;;14.01;72.25;96747.48;127132;1092;62605;-78
2021/08/07 00:51:31;;;;;;;5.67;2.60;;;;;;;14.02;72.71;96754.59;127156;1092;62620;-74
2021/08/07 00:53:59;;;;;;;4.53;2.40;;;;;;;13.97;72.42;96758.02;127193;1092;62655;-74
2021/08/07 00:56:26;;;;;;;4.87;2.73;;;;;;;13.97;72.63;96757.25;127178;1092;62661;-74
2021/08/07 00:59:13;;;;;;;4.07;2.90;;;;;;;13.93;72.23;96762.25;127015;1092;62681;-78
2021/08/07 01:01:51;;;;;;;3.30;2.70;;;;;;;13.92;72.40;96767.05;127107;1092;62667;-76
2021/08/07 01:04:20;;;;;;;4.53;2.70;;;;;;;13.93;72.58;96768.58;127071;1092;62575;-75
2021/08/07 01:06:55;;;;;;;4.63;2.60;;;;;;;13.93;72.74;96763.02;127017;1092;62575;-73
2021/08/07 01:09:29;;;;;;;7.23;2.70;;;;;;;13.86;72.56;96768.97;127107;1092;62628;-79
2021/08/07 01:12:02;;;;;;;4.80;2.70;;;;;;;13.83;72.72;96767.91;127138;1092;62572;-79
2021/08/07 01:14:50;;;;;;;6.27;2.80;;;;;;;13.81;72.77;96766.83;126999;1092;62642;-77
2021/08/07 01:17:21;;;;;;;3.70;2.50;;;;;;;13.79;73.00;96783.23;127081;1092;62575;-74
2021/08/07 01:19:56;;;;;;;3.43;2.70;;;;;;;13.73;72.91;96783.14;127098;1092;62614;-75
2021/08/07 01:22:32;;;;;;;5.67;2.77;;;;;;;13.71;72.98;96782.09;126901;1092;63006;-76
2021/08/07 01:25:03;;;;;;;4.13;2.73;;;;;;;13.67;73.20;96778.73;126912;1092;62725;-79
2021/08/07 01:27:38;;;;;;;4.40;2.60;;;;;;;13.67;73.28;96784.29;127000;1092;62584;-79
2021/08/07 01:30:25;;;;;;;3.73;2.60;;;;;;;13.60;73.22;96785.41;127012;1092;62623;-79
2021/08/07 01:33:12;;;;;;;3.00;2.50;;;;;;;13.59;73.28;96779.08;126963;1092;62571;-77
2021/08/07 01:35:39;;;;;;;3.07;2.53;;;;;;;13.57;73.09;96778.02;126926;1092;63260;-74
2021/08/07 01:38:06;;;;;;;5.07;2.93;;;;;;;13.54;73.05;96793.66;127124;1090;62628;-79
2021/08/07 01:40:33;;;;;;;3.90;2.50;;;;;;;13.52;73.44;96776.67;127026;1092;62623;-74
2021/08/07 01:43:00;;;;;;;4.47;2.80;;;;;;;13.48;73.16;96790.00;126999;1092;62588;-73
2021/08/07 01:45:27;;;;;;;3.00;2.30;;;;;;;13.50;73.46;96786.74;126919;1092;62706;-79
2021/08/07 01:47:58;;;;;;;4.53;2.90;;;;;;;13.44;73.49;96789.39;126980;1092;62584;-76
2021/08/07 01:50:36;;;;;;;5.40;2.70;;;;;;;13.44;73.45;96783.06;126974;1092;62990;-79
2021/08/07 01:53:07;;;;;;;4.03;2.60;;;;;;;13.41;73.47;96784.78;126927;1092;62621;-79
2021/08/07 01:55:45;;;;;;;3.10;2.53;;;;;;;13.43;73.41;96779.51;127147;1092;62652;-78
2021/08/07 01:58:29;;;;;;;5.17;2.80;;;;;;;13.38;73.32;96782.19;126988;1092;62572;-76
2021/08/07 02:00:58;;;;;;;4.30;2.80;;;;;;;13.38;73.44;96780.17;126958;1092;62725;-76
2021/08/07 02:03:25;;;;;;;4.40;2.47;;;;;;;13.39;73.34;96775.38;126939;1092;62770;-78
2021/08/07 02:05:52;;;;;;;3.80;2.50;;;;;;;13.36;73.35;96781.89;126931;1095;63025;-76
2021/08/07 02:08:19;;;;;;;4.13;2.60;;;;;;;13.35;73.40;96783.91;127058;1092;62682;-79
2021/08/07 02:10:48;;;;;;;4.75;2.80;;;;;;;13.34;73.39;96779.59;126949;1092;62597;-74
2021/08/07 02:13:16;;;;;;;3.93;2.70;;;;;;;13.30;73.25;96779.01;126966;1092;62576;-74
2021/08/07 02:15:45;;;;;;;4.60;2.93;;;;;;;13.28;73.36;96785.05;126886;1092;62694;-78
2021/08/07 02:18:13;;;;;;;3.83;2.57;;;;;;;13.28;73.34;96781.47;126955;1092;62569;-79
2021/08/07 02:20:40;;;;;;;3.43;2.33;;;;;;;13.28;73.16;96795.38;126903;1092;62619;-74
2021/08/07 02:23:07;;;;;;;4.37;2.27;;;;;;;13.27;73.56;96785.49;126938;1092;62684;-78
2021/08/07 02:25:34;;;;;;;3.53;2.40;;;;;;;13.26;73.28;96784.73;127064;1092;62623;-78
2021/08/07 02:28:01;;;;;;;4.93;2.50;;;;;;;13.22;73.43;96783.38;127182;1092;62780;-77
2021/08/07 02:30:28;;;;;;;5.47;3.00;;;;;;;13.17;73.34;96781.99;127158;1092;62646;-79
2021/08/07 02:32:55;;;;;;;8.10;2.90;;;;;;;13.19;73.35;96784.33;126982;1092;62649;-75
2021/08/07 02:35:22;;;;;;;3.13;2.57;;;;;;;13.20;73.76;96786.63;126961;1092;62611;-77
2021/08/07 02:37:49;;;;;;;4.23;2.80;;;;;;;13.16;73.43;96785.25;126970;1092;62623;-75
2021/08/07 02:40:31;;;;;;;3.77;2.50;;;;;;;13.17;73.70;96789.56;127039;1092;62813;-76
2021/08/07 02:42:58;;;;;;;3.20;2.40;;;;;;;13.17;73.41;96781.22;127147;1092;62623;-77
2021/08/07 02:45:26;;;;;;;6.13;2.57;;;;;;;13.15;73.61;96783.71;127143;1092;62581;-76
2021/08/07 02:47:53;;;;;;;4.57;2.60;;;;;;;13.16;73.65;96793.59;127147;1092;63064;-76
2021/08/07 02:50:20;;;;;;;3.80;2.77;;;;;;;13.15;73.65;96789.27;127014;1092;62702;-77
2021/08/07 02:52:47;;;;;;;3.10;2.60;;;;;;;13.13;73.72;96791.76;126936;1092;62572;-77
2021/08/07 02:55:13;;;;;;;4.95;2.75;;;;;;;13.12;73.90;96793.00;126916;1092;62623;-75
2021/08/07 02:57:40;;;;;;;5.45;2.70;;;;;;;13.11;73.75;96791.47;126986;1092;62608;-77
2021/08/07 03:00:08;;;;;;;3.10;2.20;;;;;;;13.10;73.69;96784.34;126975;1092;62894;-81
2021/08/07 03:02:35;;;;;;;4.17;2.77;;;;;;;13.07;73.89;96785.29;127137;1093;62633;-76
2021/08/07 03:05:02;;;;;;;4.23;2.70;;;;;;;13.06;73.71;96783.75;127186;1092;62588;-78
2021/08/07 03:07:28;;;;;;;4.87;2.40;;;;;;;13.03;73.98;96787.48;127100;1092;62662;-76
2021/08/07 03:09:55;;;;;;;5.20;2.70;;;;;;;13.00;74.13;96786.42;127209;1092;62576;-78
2021/08/07 03:12:22;;;;;;;3.93;2.77;;;;;;;12.99;73.96;96793.98;127059;1092;62620;-78
2021/08/07 03:14:50;;;;;;;6.50;2.80;;;;;;;13.00;74.20;96789.97;127156;1092;62698;-73
2021/08/07 03:17:17;;;;;;;3.30;2.53;;;;;;;12.94;74.25;96785.53;127163;1092;62633;-75
2021/08/07 03:19:44;;;;;;;3.90;2.43;;;;;;;12.94;74.25;96791.86;127219;1092;62639;-78
2021/08/07 03:22:12;;;;;;;5.00;2.87;;;;;;;12.90;73.96;96796.80;127049;1092;62574;-77
2021/08/07 03:24:39;;;;;;;5.30;3.10;;;;;;;12.88;74.12;96802.06;127110;1092;62623;-78
2021/08/07 03:27:06;;;;;;;5.73;2.70;;;;;;;12.89;74.24;96800.05;126991;1092;63056;-79
2021/08/07 03:29:33;;;;;;;3.40;2.50;;;;;;;12.87;74.19;96792.19;127075;1090;62608;-80
2021/08/07 03:32:00;;;;;;;6.00;2.90;;;;;;;12.84;74.32;96797.92;126979;1092;62628;-72
2021/08/07 03:34:27;;;;;;;3.63;2.57;;;;;;;12.88;74.60;96804.84;126988;1092;62592;-81
2021/08/07 03:36:54;;;;;;;4.40;2.87;;;;;;;12.88;74.22;96802.06;127146;1092;62633;-82
2021/08/07 03:39:21;;;;;;;6.13;3.03;;;;;;;12.90;74.48;96802.36;127146;1092;62721;-70
2021/08/07 03:41:48;;;;;;;5.57;2.93;;;;;;;12.90;74.27;96802.36;127084;1092;62552;-81
2021/08/07 03:44:15;;;;;;;6.33;2.97;;;;;;;12.90;73.97;96802.36;127070;1092;62620;-69
2021/08/07 03:46:42;;;;;;;5.23;3.20;;;;;;;12.89;74.12;96806.38;127047;1092;62578;-82
2021/08/07 03:49:09;;;;;;;5.43;2.83;;;;;;;12.88;74.09;96804.84;126924;1092;62703;-74
2021/08/07 03:51:36;;;;;;;5.53;3.00;;;;;;;12.89;74.15;96805.61;126977;1092;62620;-82
2021/08/07 03:54:03;;;;;;;8.27;2.70;;;;;;;12.91;73.76;96812.23;126984;1092;62569;-81
2021/08/07 03:56:30;;;;;;;4.27;2.93;;;;;;;12.94;73.99;96819.66;126995;1092;62628;-76
2021/08/07 03:58:57;;;;;;;4.83;2.70;;;;;;;12.98;73.81;96823.02;126994;1092;62618;-70
2021/08/07 04:01:24;;;;;;;5.57;2.90;;;;;;;13.01;73.92;96819.30;127016;1092;62620;-80
2021/08/07 04:03:52;;;;;;;4.37;2.90;;;;;;;13.03;73.85;96818.05;127032;1092;62611;-74
2021/08/07 04:06:18;;;;;;;6.20;3.00;;;;;;;13.04;73.52;96822.38;126952;1092;62751;-77
2021/08/07 04:08:45;;;;;;;7.83;3.43;;;;;;;13.06;73.50;96814.33;127085;1092;62635;-77
2021/08/07 04:11:12;;;;;;;5.20;2.93;;;;;;;13.07;73.56;96821.42;127199;1092;62683;-77
2021/08/07 04:13:39;;;;;;;4.20;3.17;;;;;;;13.10;73.59;96803.80;127003;1092;62619;-73
2021/08/07 04:16:06;;;;;;;4.90;2.87;;;;;;;13.12;73.68;96815.23;127158;1092;62716;-79
2021/08/07 04:18:33;;;;;;;5.17;3.63;;;;;;;13.14;73.45;96804.41;127089;1092;63086;-73
2021/08/07 04:21:00;;;;;;;6.27;3.20;;;;;;;13.17;73.48;96806.24;127101;1092;62639;-77
2021/08/07 04:23:27;;;;;;;4.60;3.50;;;;;;;13.22;73.39;96805.61;126960;1092;62623;-77
2021/08/07 04:25:54;;;;;;;4.47;2.93;;;;;;;13.30;72.99;96815.16;126925;1092;62630;-78
2021/08/07 04:28:21;;;;;;;4.80;2.90;;;;;;;13.31;73.05;96813.91;126962;1092;62831;-71
2021/08/07 04:30:48;;;;;;;4.05;2.65;;;;;;;13.35;72.70;96822.84;127083;1092;62798;-78
2021/08/07 04:33:15;;;;;;;4.07;2.80;;;;;;;13.40;72.70;96833.30;127146;1092;62640;-78
2021/08/07 04:35:43;;;;;;;9.47;2.63;;;;;;;13.44;72.63;96833.89;126960;1092;62639;-87
2021/08/07 04:38:10;;;;;;;5.27;3.17;;;;;;;13.49;72.44;96833.25;127016;1092;62693;-73
2021/08/07 04:40:38;;;;;;;4.40;2.80;;;;;;;13.57;72.25;96839.98;126967;1092;62783;-79
2021/08/07 04:43:05;;;;;;;6.87;3.57;;;;;;;13.63;72.46;96833.76;127081;1095;62679;-85
2021/08/07 04:45:32;;;;;;;6.80;3.07;;;;;;;13.70;71.92;96834.18;127098;1092;62572;-73
2021/08/07 04:48:03;;;;;;;6.23;3.50;;;;;;;13.74;71.84;96825.64;127157;1092;62576;-84
2021/08/07 04:50:32;;;;;;;5.10;2.93;;;;;;;13.81;71.54;96828.81;127068;1092;62619;-77
2021/08/07 04:52:59;;;;;;;4.37;2.93;;;;;;;13.86;71.33;96830.19;127030;1092;62672;-74
2021/08/07 04:55:26;;;;;;;4.90;2.90;;;;;;;13.93;71.26;96834.61;127097;1092;62790;-84
2021/08/07 04:58:29;;;;;;;7.43;3.07;;;;;;;13.96;71.00;96839.98;127090;1095;62639;-85
2021/08/07 05:01:15;;;;;;;5.37;3.07;;;;;;;14.05;70.82;96836.37;126924;1092;62591;-81
2021/08/07 05:03:43;;;;;;;3.47;2.83;;;;;;;14.12;70.77;96842.31;127154;1092;62683;-81
2021/08/07 05:06:09;;;;;;;5.00;2.80;;;;;;;14.21;70.61;96842.25;127076;1092;62588;-77
2021/08/07 05:08:37;;;;;;;5.10;3.23;;;;;;;14.30;70.34;96846.17;127023;1092;62692;-80
2021/08/07 05:11:05;;;;;;;7.83;3.17;;;;;;;14.39;70.38;96843.31;127098;1092;62623;-83
2021/08/07 05:13:35;;;;;;;6.47;2.80;;;;;;;14.48;70.03;96840.45;127160;1092;62629;-76
2021/08/07 05:16:09;;;;;;;6.03;2.57;;;;;;;14.56;69.82;96844.40;127071;1089;62687;-74
2021/08/07 05:18:36;;;;;;;7.03;3.17;;;;;;;14.63;69.66;96846.78;127009;1092;62591;-81
2021/08/07 05:21:03;;;;;;;6.37;3.33;;;;;;;14.72;69.33;96849.48;127131;1092;62751;-82
2021/08/07 05:23:30;;;;;;;6.80;3.53;;;;;;;14.79;69.12;96853.89;127124;1092;62644;-82
2021/08/07 05:25:57;;;;;;;3.95;2.80;;;;;;;14.90;68.98;96858.85;127104;1092;62568;-72
2021/08/07 05:28:24;;;;;;;6.77;3.17;;;;;;;14.98;68.71;96851.64;127052;1092;63067;-77
2021/08/07 05:30:51;;;;;;;6.37;3.10;;;;;;;15.08;68.48;96853.05;126865;1092;62620;-79
2021/08/07 05:33:38;;;;;;;5.90;3.60;;;;;;;15.17;68.37;96855.73;126892;1092;62738;-81
2021/08/07 05:36:25;;;;;;;7.37;3.20;;;;;;;15.29;68.43;96849.07;127135;1092;62697;-74
2021/08/07 05:38:52;;;;;;;5.00;2.90;;;;;;;15.43;67.99;96855.83;126921;1095;62735;-77
2021/08/07 05:41:19;;;;;;;6.90;3.33;;;;;;;15.53;67.29;96850.90;126962;1095;63089;-73
2021/08/07 05:43:46;;;;;;;4.43;3.07;;;;;;;15.62;67.21;96853.59;126965;1095;62710;-81
2021/08/07 05:46:13;;;;;;;5.40;3.10;;;;;;;15.72;66.98;96854.98;127037;1095;62735;-80
2021/08/07 05:48:39;;;;;;;4.53;2.60;;;;;;;15.82;66.21;96859.17;126917;1094;62668;-80
2021/08/07 05:51:06;;;;;;;5.90;3.07;;;;;;;15.91;66.26;96859.02;127002;1095;62744;-76
2021/08/07 05:53:34;;;;;;;6.20;3.00;;;;;;;16.00;65.69;96864.47;127061;1095;62684;-74
2021/08/07 05:56:01;;;;;;;5.33;3.03;;;;;;;16.11;65.48;96871.42;126600;1095;62668;-74
2021/08/07 05:58:30;;;;;;;6.00;2.60;;;;;;;16.21;65.13;96881.96;127033;1095;62699;-77
2021/08/07 06:00:57;;;;;;;2.98;2.30;;;;;;;16.30;64.21;96881.02;126944;1095;62634;-73
2021/08/07 06:03:24;;;;;;;3.80;2.73;;;;;;;16.37;63.88;96880.61;126892;1095;62858;-74
2021/08/07 06:05:51;;;;;;;6.60;4.37;;;;;;;16.47;63.77;96890.34;127057;1095;62677;-78
2021/08/07 06:08:19;;;;;;;6.50;4.13;;;;;;;16.57;62.93;96899.35;127069;1095;63028;-87
2021/08/07 06:10:46;;;;;;;7.70;4.33;;;;;;;16.68;62.81;96901.50;126744;1092;62776;-83
2021/08/07 06:13:13;;;;;;;5.90;2.90;;;;;;;16.76;62.36;96908.20;126940;1092;62632;-74
2021/08/07 06:15:40;;;;;;;5.57;2.77;;;;;;;16.87;61.84;96911.08;126943;1092;62605;-72
2021/08/07 06:18:07;;;;;;;4.90;3.23;;;;;;;16.97;61.00;96918.04;127067;1092;62672;-72
2021/08/07 06:20:34;;;;;;;7.37;4.30;;;;;;;17.06;60.59;96917.88;127028;1092;63034;-73
2021/08/07 06:23:01;;;;;;;5.73;4.00;;;;;;;17.16;60.82;96910.82;126942;1092;62777;-72
2021/08/07 06:25:28;;;;;;;5.67;3.73;;;;;;;17.27;60.16;96917.77;126974;1092;62655;-73
2021/08/07 06:27:56;;;;;;;8.00;5.30;;;;;;;17.36;60.46;96918.34;127042;1092;62575;-81
2021/08/07 06:30:23;;;;;;;5.57;3.93;;;;;;;17.46;60.21;96916.13;127137;1092;62689;-76
2021/08/07 06:32:51;;;;;;;5.17;2.63;;;;;;;17.57;60.23;96921.78;127134;1092;62727;-72
2021/08/07 06:35:18;;;;;;;4.43;3.10;;;;;;;17.66;59.98;96929.99;126993;1092;62719;-71
2021/08/07 06:37:45;;;;;;;4.23;2.10;;;;;;;17.78;59.73;96937.23;127088;1092;62616;-74
2021/08/07 06:40:12;;;;;;;4.47;2.67;;;;;;;17.89;59.37;96944.14;127034;1092;62623;-73
2021/08/07 06:42:39;;;;;;;8.77;2.63;;;;;;;17.99;58.73;96940.64;126962;1092;62652;-71
2021/08/07 06:45:07;;;;;;;3.17;2.47;;;;;;;18.12;58.18;96945.77;126984;1092;62780;-80
2021/08/07 06:47:34;;;;;;;4.03;2.40;;;;;;;18.24;58.32;96941.76;127126;1092;62723;-88
2021/08/07 06:50:01;;;;;;;4.17;2.20;;;;;;;18.36;57.48;96937.73;127104;1092;62627;-76
2021/08/07 06:52:28;;;;;;;5.80;2.67;;;;;;;18.46;56.76;96938.26;127080;1092;62553;-78
2021/08/07 06:54:55;;;;;;;4.50;2.55;;;;;;;18.57;56.14;96937.54;127039;1092;62644;-85
2021/08/07 06:57:22;;;;;;;4.23;2.73;;;;;;;18.69;56.48;96939.13;127136;1092;62796;-80
2021/08/07 06:59:53;;;;;;;5.93;3.13;;;;;;;18.74;56.18;96935.56;127035;1092;62777;-76
2021/08/07 07:02:20;;;;;;;3.83;2.20;;;;;;;18.89;56.46;96950.13;127040;1092;62667;-71
2021/08/07 07:04:49;;;;;;;3.70;2.43;;;;;;;18.98;56.51;96955.48;127204;1092;62584;-71
2021/08/07 07:07:16;;;;;;;3.50;2.50;;;;;;;19.11;56.66;96951.42;127159;1092;63009;-72
2021/08/07 07:09:43;;;;;;;4.10;2.30;;;;;;;19.23;57.18;96947.36;126917;1092;62689;-74
2021/08/07 07:12:11;;;;;;;3.47;2.40;;;;;;;19.34;57.09;96952.95;126964;1092;61801;-76
2021/08/07 07:14:38;;;;;;;3.03;2.40;;;;;;;19.45;57.25;96950.14;126920;1092;62632;-78
2021/08/07 07:17:04;;;;;;;3.00;2.70;;;;;;;19.55;56.82;96945.81;126949;1092;62587;-78
2021/08/07 07:19:32;;;;;;;6.83;2.50;;;;;;;19.66;56.92;96938.66;127019;1092;62633;-73
2021/08/07 07:21:59;;;;;;;3.57;2.40;;;;;;;19.79;57.32;96942.47;127033;1092;62645;-84
2021/08/07 07:24:26;;;;;;;4.70;2.57;;;;;;;19.90;57.38;96941.66;127104;1092;62785;-89
2021/08/07 07:26:53;;;;;;;2.97;2.40;;;;;;;20.05;56.36;96939.32;127114;1092;62630;-69
2021/08/07 07:29:19;;;;;;;4.43;2.23;;;;;;;20.16;56.25;96947.72;127048;1092;62636;-76
2021/08/07 07:31:46;;;;;;;3.17;2.40;;;;;;;20.27;54.46;96944.09;127067;1092;62617;-80
2021/08/07 07:34:13;;;;;;;2.90;2.10;;;;;;;20.38;52.68;96948.91;127166;1092;62633;-88
2021/08/07 07:36:40;;;;;;;4.20;2.73;;;;;;;20.46;52.99;96949.91;127116;1092;63051;-82
2021/08/07 07:39:07;;;;;;;7.00;2.70;;;;;;;20.54;52.61;96936.08;127224;1092;62628;-83
2021/08/07 07:41:34;;;;;;;3.13;2.40;;;;;;;20.62;52.11;96934.23;127082;1092;62636;-83
2021/08/07 07:44:01;;;;;;;4.77;2.27;;;;;;;20.67;50.62;96939.84;127141;1092;62623;-82
2021/08/07 07:46:28;;;;;;;4.93;2.77;;;;;;;20.73;51.42;96937.76;127081;1092;62654;-71
2021/08/07 07:48:55;;;;;;;4.43;2.53;;;;;;;20.81;51.54;96933.09;127079;1092;62769;-69
2021/08/07 07:51:22;;;;;;;3.47;2.40;;;;;;;20.87;51.13;96930.27;126969;1092;62859;-82
2021/08/07 07:53:49;;;;;;;2.65;2.40;;;;;;;20.94;50.85;96928.92;127009;1092;62623;-76
2021/08/07 07:56:16;;;;;;;5.83;2.80;;;;;;;21.02;50.96;96936.30;127027;1092;62672;-74
2021/08/07 07:58:43;;;;;;;9.93;5.30;;;;;;;21.12;50.08;96942.35;127157;1092;62648;-73
2021/08/07 08:01:10;;;;;;;8.00;3.23;;;;;;;21.20;50.28;96939.75;127196;1092;62629;-69
2021/08/07 08:03:37;;;;;;;4.27;3.00;;;;;;;21.30;50.80;96947.36;127097;1092;62630;-84
2021/08/07 08:06:06;;;;;;;2.77;2.00;;;;;;;21.40;49.17;96951.38;126938;1092;62630;-73
2021/08/07 08:08:33;;;;;;;2.90;2.40;;;;;;;21.46;49.41;96940.06;126970;1092;62681;-70
2021/08/07 08:11:00;;;;;;;3.07;2.37;;;;;;;21.54;49.48;96941.00;127083;1092;62633;-83
2021/08/07 08:13:27;;;;;;;2.67;1.90;;;;;;;21.63;48.99;96945.54;127139;1092;62636;-75
2021/08/07 08:15:54;;;;;;;3.77;2.63;;;;;;;21.68;49.47;96950.35;127191;1092;63112;-77
2021/08/07 08:18:22;;;;;;;5.17;2.80;;;;;;;21.71;49.21;96954.92;127096;1092;62572;-84
2021/08/07 08:20:49;;;;;;;3.33;2.47;;;;;;;21.72;49.51;96945.19;126973;1092;62645;-84
2021/08/07 08:23:16;;;;;;;3.25;2.20;;;;;;;21.70;48.50;96947.77;126995;1092;62631;-85
2021/08/07 08:25:43;;;;;;;2.30;2.10;;;;;;;21.72;48.01;96950.81;126964;1092;62722;-73
2021/08/07 08:28:10;;;;;;;2.47;1.97;;;;;;;21.76;46.29;96950.55;127027;1092;62631;-69
2021/08/07 08:30:39;;;;;;;3.30;2.00;;;;;;;21.79;46.66;96950.25;126925;1092;62604;-70
2021/08/07 08:33:06;;;;;;;3.10;2.03;;;;;;;21.86;47.34;96949.66;126988;1092;62623;-80
2021/08/07 08:35:33;;;;;;;3.17;2.10;;;;;;;21.96;47.71;96953.66;126958;1092;62740;-85
2021/08/07 08:38:00;;;;;;;5.90;2.03;;;;;;;22.06;46.55;96956.14;126958;1092;62768;-84
2021/08/07 08:40:27;;;;;;;2.40;1.83;;;;;;;22.16;45.78;96962.95;126945;1092;62620;-77
2021/08/07 08:42:54;;;;;;;2.47;1.80;;;;;;;22.23;46.04;96951.07;127054;1093;62703;-80
2021/08/07 08:45:21;;;;;;;7.05;2.35;;;;;;;22.36;46.42;96948.36;127011;1092;62588;-72
2021/08/07 08:47:48;;;;;;;2.87;2.10;;;;;;;22.47;47.05;96956.69;126957;1092;62665;-73
2021/08/07 08:50:16;;;;;;;1.90;1.57;;;;;;;22.56;46.44;96955.54;126993;1092;62719;-71
2021/08/07 08:52:43;;;;;;;4.07;2.37;;;;;;;22.64;46.36;96959.30;126959;1092;62620;-86
2021/08/07 08:55:11;;;;;;;3.70;2.37;;;;;;;22.73;45.98;96949.67;127012;1092;62625;-72
2021/08/07 08:57:38;;;;;;;3.13;2.27;;;;;;;22.83;46.26;96959.33;127009;1092;62591;-82
2021/08/07 09:00:08;;;;;;;2.90;2.13;;;;;;;22.94;45.50;96956.32;127056;1092;62709;-87
2021/08/07 09:02:35;;;;;;;4.53;2.50;;;;;;;23.02;45.02;96943.13;126970;1092;62614;-83
2021/08/07 09:05:04;;;;;;;2.50;1.73;;;;;;;23.06;42.64;96943.58;126970;1092;62623;-81
2021/08/07 09:07:31;;;;;;;3.83;2.67;;;;;;;23.07;44.20;96950.75;127085;1092;63156;-79
2021/08/07 09:09:58;;;;;;;3.33;2.00;;;;;;;23.10;43.62;96944.02;127001;1092;62608;-76
2021/08/07 09:12:39;;;;;;;3.53;2.27;;;;;;;23.18;44.16;96944.94;127103;1092;62624;-78
2021/08/07 09:15:23;;;;;;;3.90;2.10;;;;;;;23.31;43.89;96957.56;127233;1092;62756;-72
2021/08/07 09:17:51;;;;;;;2.13;1.80;;;;;;;23.36;42.50;96948.25;126985;1092;62601;-71
2021/08/07 09:20:28;;;;;;;2.37;2.00;;;;;;;23.40;42.78;96949.45;127066;1092;62625;-77
2021/08/07 09:22:55;;;;;;;3.83;2.03;;;;;;;23.41;41.63;96944.56;127195;1092;62626;-71
2021/08/07 09:25:26;;;;;;;2.50;2.10;;;;;;;23.45;42.21;96942.19;126988;1092;62638;-71
2021/08/07 09:27:53;;;;;;;3.53;2.90;;;;;;;23.46;41.99;96941.64;126878;1092;62725;-76
2021/08/07 09:30:22;;;;;;;4.77;2.83;;;;;;;23.51;42.51;96937.19;126935;1092;62620;-75
2021/08/07 09:32:59;;;;;;;2.83;2.40;;;;;;;23.64;42.02;96947.80;127114;1092;62639;-74
2021/08/07 09:35:40;;;;;;;4.27;2.20;;;;;;;23.75;42.18;96939.89;126988;1092;62613;-75
2021/08/07 09:38:09;;;;;;;2.60;2.03;;;;;;;23.87;41.75;96939.67;126965;1092;62577;-72
2021/08/07 09:40:47;;;;;;;3.08;2.13;;;;;;;23.99;43.02;96941.75;127078;1091;62620;-74
2021/08/07 09:43:17;;;;;;;4.33;2.10;;;;;;;24.16;43.39;96949.91;127163;1092;62658;-74
2021/08/07 09:45:44;;;;;;;3.90;2.38;;;;;;;24.37;43.05;96942.31;127002;1092;62632;-71
2021/08/07 09:48:13;;;;;;;2.77;2.17;;;;;;;24.64;42.54;96947.95;126951;1092;62648;-72
2021/08/07 09:50:41;;;;;;;2.33;1.90;;;;;;;24.90;40.08;96945.03;127158;1092;62636;-81
2021/08/07 09:53:21;;;;;;;2.20;1.90;;;;;;;25.26;40.68;96950.16;127254;1092;62580;-83
2021/08/07 09:56:01;;;;;;;4.23;2.10;;;;;;;26.41;38.24;96952.62;127001;1095;62630;-78
2021/08/07 09:58:28;;;;;;;2.03;1.90;;;;;;;27.60;35.30;96954.11;127088;1095;62562;-76
2021/08/07 10:00:55;;;;;;;4.37;2.13;;;;;;;28.82;34.21;96956.04;126966;1095;62659;-72
2021/08/07 10:03:30;;;;;;;1.70;1.60;;;;;;;29.97;32.33;96956.09;126735;1095;62598;-80
2021/08/07 10:05:57;;;;;;;2.20;1.90;;;;;;;31.37;31.37;96955.49;127103;1095;62616;-77
2021/08/07 10:08:24;;;;;;;7.07;1.93;;;;;;;32.48;28.45;96954.81;126703;1095;62664;-75
2021/08/07 10:11:12;;;;;;;3.80;2.10;;;;;;;33.37;26.92;96954.17;126718;1095;62642;-82
2021/08/07 10:13:55;;;;;;;2.57;1.87;;;;;;;33.85;25.62;96951.91;126947;1095;62669;-73
2021/08/07 10:16:22;;;;;;;2.53;2.00;;;;;;;34.28;24.38;96942.58;126987;1095;62993;-87
2021/08/07 10:18:50;;;;;;;2.80;1.90;;;;;;;34.84;24.58;96948.53;127040;1095;62559;-79
2021/08/07 10:21:17;;;;;;;2.00;1.80;;;;;;;35.16;22.89;96957.78;126974;1095;62884;-74
2021/08/07 10:23:45;;;;;;;2.65;1.90;;;;;;;35.73;23.41;96960.05;127088;1095;62606;-83
2021/08/07 10:26:15;;;;;;;2.97;2.00;;;;;;;36.45;22.89;96952.91;127019;1095;62611;-78
2021/08/07 10:28:54;;;;;;;2.53;2.00;;;;;;;37.34;23.12;96955.19;127015;1095;62559;-70
2021/08/07 10:31:23;;;;;;;4.38;2.00;;;;;;;38.29;22.80;96945.20;127064;1095;62623;-87
2021/08/07 10:33:52;;;;;;;1.70;1.60;;;;;;;39.22;21.26;96940.48;127107;1095;62990;-79
2021/08/07 10:36:19;;;;;;;1.70;1.60;;;;;;;39.86;20.52;96942.06;126958;1095;62592;-74
2021/08/07 10:38:46;;;;;;;4.40;1.80;;;;;;;40.55;20.05;96946.54;126879;1095;62619;-75
2021/08/07 10:41:13;;;;;;;1.70;1.60;;;;;;;41.15;18.95;96938.91;126870;1095;62610;-79
2021/08/07 10:44:03;;;;;;;3.43;1.75;;;;;;;41.67;18.88;96937.39;126954;1095;62752;-68
2021/08/07 10:46:58;;;;;;;2.98;1.50;;;;;;;42.40;18.15;96933.53;127069;1095;62614;-82
2021/08/07 10:49:50;;;;;;;1.68;1.58;;;;;;;42.30;17.61;96936.06;127009;1095;62630;-80
2021/08/07 10:52:23;;;;;;;2.03;1.40;;;;;;;42.66;16.69;96942.45;126934;1095;62604;-69
2021/08/07 10:54:51;;;;;;;3.25;1.40;;;;;;;42.87;16.11;96938.79;126927;1095;62607;-71
2021/08/07 10:57:36;;;;;;;1.43;1.33;;;;;;;42.98;15.09;96934.83;126951;1095;62607;-78
2021/08/07 11:00:16;;;;;;;2.60;2.15;;;;;;;42.98;14.90;96951.55;126959;1095;62587;-87
2021/08/07 11:02:43;;;;;;;1.40;1.30;;;;;;;42.48;15.30;96946.21;127371;1095;62613;-69
2021/08/07 11:05:10;;;;;;;2.70;1.50;;;;;;;42.51;16.47;96938.30;127051;1095;62572;-76
2021/08/07 11:07:38;;;;;;;3.70;1.70;;;;;;;42.37;16.14;96940.67;127107;1095;62642;-75
2021/08/07 11:10:13;;;;;;;2.60;1.30;;;;;;;42.65;15.54;96947.52;126830;1095;62634;-74
2021/08/07 11:12:42;;;;;;;2.35;1.40;;;;;;;42.95;15.70;96935.45;127236;1095;62634;-70
2021/08/07 11:15:10;;;;;;;1.60;1.30;;;;;;;42.98;14.52;96937.00;126720;1095;62640;-74
2021/08/07 11:17:57;;;;;;;2.07;1.40;;;;;;;43.04;14.79;96940.09;127092;1095;62537;-70
2021/08/07 11:20:53;;;;;;;2.10;1.50;;;;;;;43.07;15.33;96945.31;127019;1095;62601;-70
2021/08/07 11:23:40;;;;;;;1.78;1.40;;;;;;;42.68;15.24;96942.51;127141;1095;62633;-71
2021/08/07 11:26:07;;;;;;;1.30;1.20;;;;;;;42.56;14.47;96945.77;127146;1095;63077;-70
2021/08/07 11:29:04;;;;;;;1.70;1.50;;;;;;;42.33;15.09;96943.44;127189;1095;62620;-73
2021/08/07 11:31:31;;;;;;;1.90;1.50;;;;;;;42.72;15.61;96933.91;127219;1095;62552;-82
2021/08/07 11:34:18;;;;;;;1.75;1.20;;;;;;;43.01;14.68;96932.72;126918;1095;62864;-72
2021/08/07 11:37:31;;;;;;;1.43;1.33;;;;;;;42.89;14.42;96941.80;127055;1095;62620;-77